Crosby, Washington
Current Conditions -  °F | °C
As of 10:35 AM on Wednesday 26 Nov 2014 (Local Time) from KPWT Reporting Station
Overcast Overcast  
Wind Chill: 55°   Ceiling: 2300
Heat Index: 55°   Visibility: 7mi
Dew Point: 55°   Wind: 12mph
Humidity: 100%   Direction: 180°S
Pressure: 30.13"   Gusts: NA
Location:  47.5964°N, 122.62°W
Report Text: KPWT 261835Z AUTO 18010KT 7SM OVC023 13/13 A3013 RMK AO1 P0001
Loading
Personal Weather Stations






























Interactive Weather Map New forecast layout! Learn more

10-Day Weather Forecast

Advertisements
Track Severe Weather on mobile